createdAt,value
2022-08-06T00:00:03.120Z,2.55
2022-08-06T00:02:22.596Z,2.50
2022-08-06T00:04:52.776Z,2.90
2022-08-06T00:07:22.722Z,2.90
2022-08-06T00:10:00.000Z,3.30
2022-08-06T00:12:32.400Z,3.17
2022-08-06T00:15:00.881Z,2.88
2022-08-06T00:17:31.763Z,2.95
2022-08-06T00:20:01.023Z,3.10
2022-08-06T00:22:29.023Z,3.13
2022-08-06T00:24:56.762Z,3.38
2022-08-06T00:27:29.178Z,2.53
2022-08-06T00:30:05.978Z,3.08
2022-08-06T00:32:33.343Z,2.55
2022-08-06T00:35:04.362Z,2.85
2022-08-06T00:37:57.172Z,3.33
2022-08-06T00:40:24.658Z,3.55
2022-08-06T00:42:54.626Z,3.67
2022-08-06T00:45:24.261Z,3.47
2022-08-06T00:48:02.812Z,3.70
2022-08-06T00:50:30.863Z,3.53
2022-08-06T00:52:58.492Z,3.30
2022-08-06T00:55:32.021Z,3.33
2022-08-06T00:58:05.227Z,4.05
2022-08-06T01:00:36.967Z,4.30
2022-08-06T01:03:27.355Z,4.03
2022-08-06T01:06:53.228Z,4.18
2022-08-06T01:08:42.167Z,4.05
2022-08-06T01:11:09.873Z,3.95
2022-08-06T01:14:01.813Z,4.10
2022-08-06T01:16:45.406Z,3.95
2022-08-06T01:21:22.110Z,3.70
2022-08-06T01:22:40.163Z,4.10
2022-08-06T01:25:15.151Z,3.90
2022-08-06T01:28:12.346Z,3.67
2022-08-06T01:30:47.780Z,3.88
2022-08-06T01:33:24.977Z,3.90
2022-08-06T01:36:03.121Z,4.40
2022-08-06T01:38:36.416Z,4.07
2022-08-06T01:41:08.310Z,4.05
2022-08-06T01:44:07.529Z,3.95
2022-08-06T01:46:25.473Z,3.80
2022-08-06T01:48:56.551Z,4.38
2022-08-06T01:52:14.427Z,3.80
2022-08-06T01:54:15.250Z,4.22
2022-08-06T01:56:57.896Z,4.15
2022-08-06T01:59:32.126Z,4.05
2022-08-06T02:02:01.413Z,4.32
2022-08-06T02:04:39.271Z,4.13
2022-08-06T02:08:04.118Z,3.83
2022-08-06T02:09:57.975Z,4.40
2022-08-06T02:12:27.018Z,4.15
2022-08-06T02:14:58.041Z,4.53
2022-08-06T02:18:04.620Z,4.55
2022-08-06T02:20:36.821Z,4.32
2022-08-06T02:23:08.619Z,4.32
2022-08-06T02:25:41.421Z,4.47
2022-08-06T02:28:10.925Z,4.30
2022-08-06T02:30:42.675Z,4.43
2022-08-06T02:33:10.500Z,4.65
2022-08-06T02:35:57.852Z,5.40
2022-08-06T02:38:36.809Z,4.55
2022-08-06T02:41:22.149Z,5.28
2022-08-06T02:43:55.480Z,4.82
2022-08-06T02:46:39.376Z,5.32
2022-08-06T02:49:25.293Z,5.43
2022-08-06T02:52:17.760Z,5.18
2022-08-06T02:54:53.378Z,5.18
2022-08-06T02:57:48.349Z,5.00
2022-08-06T03:00:18.953Z,4.85
2022-08-06T03:02:48.165Z,5.55
2022-08-06T03:05:19.763Z,5.22
2022-08-06T03:08:10.743Z,5.28
2022-08-06T03:10:38.362Z,5.70
2022-08-06T03:13:10.951Z,5.30
2022-08-06T03:15:58.206Z,5.85
2022-08-06T03:18:26.808Z,5.03
2022-08-06T03:20:56.004Z,5.60
2022-08-06T03:23:26.834Z,5.70
2022-08-06T03:25:55.244Z,5.07
2022-08-06T03:28:22.844Z,5.80
2022-08-06T03:30:55.509Z,5.43
2022-08-06T03:33:29.098Z,5.20
2022-08-06T03:36:00.812Z,5.00
2022-08-06T03:38:33.582Z,5.13
2022-08-06T03:41:01.927Z,5.20
2022-08-06T03:43:45.809Z,5.63
2022-08-06T03:46:28.498Z,5.03
2022-08-06T03:48:59.678Z,5.13
2022-08-06T03:51:50.365Z,5.38
2022-08-06T03:54:30.403Z,5.65
2022-08-06T03:57:08.119Z,5.45
2022-08-06T03:59:43.625Z,5.32
2022-08-06T04:02:36.908Z,5.45
2022-08-06T04:05:15.558Z,5.53
2022-08-06T04:07:54.527Z,5.10
2022-08-06T04:10:32.941Z,5.20
2022-08-06T04:13:38.253Z,5.32
2022-08-06T04:15:51.277Z,5.45
2022-08-06T04:18:24.980Z,5.45
2022-08-06T04:21:05.191Z,5.63
2022-08-06T04:23:42.756Z,5.28
2022-08-06T04:26:14.788Z,6.00
2022-08-06T04:28:57.179Z,6.00
2022-08-06T04:32:13.551Z,6.13
2022-08-06T04:34:16.861Z,5.75
2022-08-06T04:36:53.895Z,5.53
2022-08-06T04:39:37.831Z,6.43
2022-08-06T04:42:12.851Z,6.50
2022-08-06T04:44:44.776Z,5.90
2022-08-06T04:47:15.082Z,6.55
2022-08-06T04:49:58.349Z,5.85
2022-08-06T04:52:36.085Z,5.95
2022-08-06T04:55:24.433Z,6.60
2022-08-06T04:57:57.086Z,5.55
2022-08-06T05:00:33.576Z,5.80
2022-08-06T05:03:01.827Z,5.43
2022-08-06T05:05:31.550Z,5.93
2022-08-06T05:08:01.575Z,5.60
2022-08-06T05:10:47.588Z,5.80
2022-08-06T05:13:28.499Z,5.45
2022-08-06T05:16:07.152Z,5.32
2022-08-06T05:19:20.365Z,5.50
2022-08-06T05:22:05.359Z,5.80
2022-08-06T05:24:39.527Z,6.13
2022-08-06T05:27:11.897Z,5.90
2022-08-06T05:29:41.564Z,5.78
2022-08-06T05:32:19.500Z,5.50
2022-08-06T05:34:53.049Z,6.13
2022-08-06T05:37:26.462Z,6.00
2022-08-06T05:40:09.962Z,6.78
2022-08-06T05:42:38.811Z,6.00
2022-08-06T05:45:09.773Z,5.75
2022-08-06T05:47:55.234Z,6.60
2022-08-06T05:50:28.338Z,6.35
2022-08-06T05:53:02.814Z,6.38
2022-08-06T05:55:38.559Z,5.60
2022-08-06T06:00:43.700Z,5.10
2022-08-06T06:03:24.539Z,5.55
2022-08-06T06:06:10.865Z,5.55
2022-08-06T06:08:55.376Z,5.18
2022-08-06T06:11:55.534Z,5.45
2022-08-06T06:14:32.498Z,4.70
2022-08-06T06:17:13.614Z,5.47
2022-08-06T06:19:54.107Z,5.05
2022-08-06T06:22:27.846Z,5.55
2022-08-06T06:25:02.553Z,6.03
2022-08-06T06:27:51.960Z,5.90
2022-08-06T06:30:40.187Z,5.82
2022-08-06T06:33:37.103Z,5.53
2022-08-06T06:36:24.031Z,5.70
2022-08-06T06:39:04.902Z,5.05
2022-08-06T06:41:44.602Z,5.50
2022-08-06T06:44:24.280Z,5.32
2022-08-06T06:47:16.312Z,5.88
2022-08-06T06:50:03.222Z,5.20
2022-08-06T06:52:35.982Z,4.18
2022-08-06T06:55:15.617Z,4.55
2022-08-06T06:57:51.704Z,4.32
2022-08-06T07:00:44.205Z,3.85
2022-08-06T07:03:09.738Z,3.60
2022-08-06T07:06:02.601Z,3.30
2022-08-06T07:08:31.803Z,3.17
2022-08-06T07:11:06.624Z,3.72
2022-08-06T07:13:47.382Z,2.60
2022-08-06T07:16:35.008Z,2.50
2022-08-06T07:19:05.186Z,2.05
2022-08-06T07:21:32.666Z,1.67
2022-08-06T07:24:08.366Z,1.60
2022-08-06T07:26:50.966Z,1.40
2022-08-06T07:29:49.599Z,1.40
2022-08-06T07:32:30.988Z,1.50
2022-08-06T07:34:56.497Z,1.30
2022-08-06T07:37:25.446Z,1.60
2022-08-06T07:39:56.737Z,1.45
2022-08-06T07:42:25.470Z,1.55
2022-08-06T07:45:01.211Z,1.45
2022-08-06T07:47:46.161Z,1.80
2022-08-06T07:50:23.777Z,1.75
2022-08-06T07:52:53.354Z,1.42
2022-08-06T07:55:26.274Z,1.10
2022-08-06T07:57:59.956Z,1.05
2022-08-06T08:00:28.995Z,0.88
2022-08-06T08:03:11.688Z,0.70
2022-08-06T08:06:03.191Z,0.70
2022-08-06T08:08:31.773Z,0.40
2022-08-06T08:11:01.583Z,0.32
2022-08-06T08:13:41.672Z,0.30
2022-08-06T08:16:20.302Z,0.50
2022-08-06T08:18:55.664Z,0.50
2022-08-06T08:21:22.957Z,0.50
2022-08-06T08:23:55.385Z,0.60
2022-08-06T08:26:25.261Z,0.70
2022-08-06T08:28:52.458Z,0.60
2022-08-06T08:31:20.891Z,0.57
2022-08-06T08:33:52.575Z,0.50
2022-08-06T08:36:22.129Z,0.80
2022-08-06T08:39:04.213Z,0.90
2022-08-06T08:41:48.159Z,0.73
2022-08-06T08:44:26.443Z,0.65
2022-08-06T08:46:58.834Z,0.80
2022-08-06T08:49:35.606Z,0.90
2022-08-06T08:52:11.609Z,0.73
2022-08-06T08:54:42.224Z,0.80
2022-08-06T08:58:40.142Z,1.02
2022-08-06T09:00:01.666Z,1.00
2022-08-06T09:02:30.953Z,0.77
2022-08-06T09:04:59.084Z,0.88
2022-08-06T09:07:35.585Z,1.17
2022-08-06T09:10:06.823Z,1.00
2022-08-06T09:12:45.478Z,1.30
2022-08-06T09:15:17.110Z,1.13
2022-08-06T09:18:12.254Z,1.05
2022-08-06T09:20:35.227Z,1.20
2022-08-06T09:23:02.490Z,1.35
2022-08-06T09:25:50.887Z,1.38
2022-08-06T09:28:36.396Z,1.23
2022-08-06T09:31:10.473Z,1.20
2022-08-06T09:34:19.010Z,1.13
2022-08-06T09:36:52.260Z,1.23
2022-08-06T09:39:45.998Z,1.20
2022-08-06T09:42:43.572Z,1.30
2022-08-06T09:45:15.106Z,1.33
2022-08-06T09:47:57.741Z,1.20
2022-08-06T09:50:38.621Z,1.33
2022-08-06T09:53:12.891Z,1.77
2022-08-06T09:55:41.665Z,1.67
2022-08-06T09:58:08.591Z,1.70
2022-08-06T10:00:38.842Z,1.75
2022-08-06T10:04:04.858Z,1.42
2022-08-06T10:06:14.513Z,1.50
2022-08-06T10:08:46.153Z,1.83
2022-08-06T10:11:41.737Z,1.73
2022-08-06T10:14:35.486Z,1.60
2022-08-06T10:17:09.107Z,1.45
2022-08-06T10:19:38.166Z,1.73
2022-08-06T10:22:10.368Z,1.55
2022-08-06T10:24:48.780Z,1.52
2022-08-06T10:27:22.579Z,2.05
2022-08-06T10:29:52.811Z,1.73
2022-08-06T10:32:35.288Z,1.83
2022-08-06T10:35:12.103Z,1.52
2022-08-06T10:37:47.899Z,1.83
2022-08-06T10:40:30.695Z,1.60
2022-08-06T10:43:00.531Z,1.50
2022-08-06T10:45:49.184Z,1.75
2022-08-06T10:48:59.387Z,1.80
2022-08-06T10:51:05.787Z,2.10
2022-08-06T10:54:01.955Z,1.67
2022-08-06T10:56:28.603Z,1.73
2022-08-06T10:59:00.554Z,2.10
2022-08-06T11:01:43.603Z,2.05
2022-08-06T11:04:44.035Z,1.70
2022-08-06T11:08:08.305Z,1.90
2022-08-06T11:10:53.483Z,1.90
2022-08-06T11:13:36.856Z,2.30
2022-08-06T11:16:04.732Z,2.03
2022-08-06T11:18:31.391Z,1.40
2022-08-06T11:21:01.356Z,1.58
2022-08-06T11:23:58.609Z,1.13
2022-08-06T11:26:36.451Z,1.65
2022-08-06T11:29:07.977Z,1.52
2022-08-06T11:31:56.412Z,1.30
2022-08-06T11:34:42.153Z,1.45
2022-08-06T11:38:02.949Z,1.35
2022-08-06T11:41:06.143Z,1.20
2022-08-06T11:44:03.251Z,1.70
2022-08-06T11:46:35.929Z,1.40
2022-08-06T11:49:06.150Z,1.92
2022-08-06T11:51:42.604Z,1.40
2022-08-06T11:54:28.352Z,1.25
2022-08-06T11:57:19.481Z,1.65
2022-08-06T12:00:08.864Z,1.63
2022-08-06T12:02:48.174Z,2.33
2022-08-06T12:05:20.005Z,1.63
2022-08-06T12:08:38.888Z,1.58
2022-08-06T12:11:22.282Z,1.65
2022-08-06T12:13:57.565Z,1.58
2022-08-06T12:16:39.891Z,1.73
2022-08-06T12:19:13.767Z,1.38
2022-08-06T12:21:44.876Z,1.70
2022-08-06T12:24:14.688Z,1.55
2022-08-06T12:26:41.464Z,1.42
2022-08-06T12:29:09.404Z,1.38
2022-08-06T12:31:44.125Z,1.67
2022-08-06T12:34:27.617Z,1.60
2022-08-06T12:36:54.897Z,1.75
2022-08-06T12:39:48.118Z,1.65
2022-08-06T12:42:53.108Z,1.35
2022-08-06T12:46:04.488Z,1.63
2022-08-06T12:50:41.991Z,1.90
2022-08-06T12:53:11.520Z,1.75
2022-08-06T12:55:48.687Z,1.60
2022-08-06T12:58:43.083Z,1.90
2022-08-06T13:03:49.192Z,1.75
2022-08-06T13:06:32.384Z,1.73
2022-08-06T13:09:03.647Z,2.20
2022-08-06T13:11:36.955Z,2.30
2022-08-06T13:14:17.536Z,2.45
2022-08-06T13:16:55.120Z,2.30
2022-08-06T13:19:32.450Z,2.28
2022-08-06T13:22:03.223Z,2.63
2022-08-06T13:24:35.413Z,2.00
2022-08-06T13:27:06.002Z,2.65
2022-08-06T13:30:35.833Z,2.50
2022-08-06T13:32:33.516Z,1.95
2022-08-06T13:35:11.367Z,2.15
2022-08-06T13:37:55.689Z,2.00
2022-08-06T13:40:38.390Z,2.50
2022-08-06T13:43:04.996Z,2.40
2022-08-06T13:45:56.702Z,2.55
2022-08-06T13:48:23.523Z,2.50
2022-08-06T13:50:50.333Z,2.72
2022-08-06T13:53:17.423Z,2.53
2022-08-06T13:56:02.301Z,2.22
2022-08-06T13:58:30.671Z,2.25
2022-08-06T14:00:58.013Z,2.55
2022-08-06T14:03:26.530Z,2.58
2022-08-06T14:05:53.248Z,2.35
2022-08-06T14:08:34.613Z,2.80
2022-08-06T14:11:03.035Z,2.25
2022-08-06T14:13:30.274Z,2.35
2022-08-06T14:15:57.003Z,2.38
2022-08-06T14:18:32.056Z,2.10
2022-08-06T14:21:01.662Z,1.85
2022-08-06T14:23:40.445Z,2.30
2022-08-06T14:28:48.506Z,2.13
2022-08-06T14:31:29.662Z,1.92
2022-08-06T14:33:59.793Z,2.03
2022-08-06T14:36:29.319Z,1.50
2022-08-06T14:39:00.260Z,1.40
2022-08-06T14:44:45.919Z,1.60
2022-08-06T14:47:56.854Z,1.75
2022-08-06T14:52:26.452Z,1.88
2022-08-06T14:54:55.950Z,1.92
2022-08-06T14:58:03.912Z,1.90
2022-08-06T15:02:59.812Z,1.77
2022-08-06T15:05:41.708Z,1.90
2022-08-06T15:10:40.020Z,2.17
2022-08-06T15:13:06.935Z,2.13
2022-08-06T15:15:37.106Z,2.10
2022-08-06T15:18:40.596Z,2.83
2022-08-06T15:21:03.503Z,2.63
2022-08-06T15:23:31.131Z,1.73
2022-08-06T15:26:47.226Z,1.90
2022-08-06T15:29:10.970Z,2.03
2022-08-06T15:31:42.635Z,2.20
2022-08-06T15:34:12.418Z,1.67
2022-08-06T15:36:40.043Z,1.60
2022-08-06T15:39:52.381Z,2.17
2022-08-06T15:44:41.391Z,1.60
2022-08-06T15:47:08.776Z,1.67
2022-08-06T15:50:02.629Z,6.55
2022-08-06T15:52:26.325Z,4.50
2022-08-06T15:54:53.716Z,2.60
2022-08-06T15:58:05.371Z,2.30
2022-08-06T16:00:17.443Z,4.15
2022-08-06T16:02:50.001Z,3.07
2022-08-06T16:05:32.287Z,2.75
2022-08-06T16:08:06.007Z,2.30
2022-08-06T16:10:32.988Z,2.38
2022-08-06T16:13:00.141Z,2.50
2022-08-06T16:15:26.883Z,2.17
2022-08-06T16:18:09.328Z,2.60
2022-08-06T16:23:54.898Z,2.30
2022-08-06T16:26:10.013Z,2.15
2022-08-06T16:31:16.076Z,2.00
2022-08-06T16:33:54.448Z,2.45
2022-08-06T16:36:32.217Z,2.20
2022-08-06T16:39:00.295Z,2.10
2022-08-06T16:44:17.247Z,2.92
2022-08-06T16:47:00.953Z,2.53
2022-08-06T16:50:17.683Z,4.65
2022-08-06T16:52:42.871Z,47.72
2022-08-06T16:55:08.624Z,26.85
2022-08-06T16:57:37.299Z,14.73
2022-08-06T17:00:07.312Z,7.50
2022-08-06T17:02:37.652Z,4.47
2022-08-06T17:07:59.937Z,2.55
2022-08-06T17:10:39.490Z,2.88
2022-08-06T17:13:09.400Z,2.75
2022-08-06T17:20:56.114Z,2.78
2022-08-06T17:23:27.199Z,2.67
2022-08-06T17:26:01.182Z,2.50
2022-08-06T17:28:31.462Z,2.55
2022-08-06T17:30:58.700Z,2.72
2022-08-06T17:33:25.311Z,2.58
2022-08-06T17:36:32.282Z,2.33
2022-08-06T17:43:56.760Z,3.03
2022-08-06T17:46:28.555Z,3.15
2022-08-06T17:49:00.357Z,2.50
2022-08-06T17:51:33.848Z,2.92
2022-08-06T17:54:26.991Z,2.70
2022-08-06T17:56:51.518Z,2.88
2022-08-06T17:59:21.929Z,3.10
2022-08-06T18:01:51.066Z,2.80
2022-08-06T18:04:22.055Z,2.97
2022-08-06T18:06:55.707Z,3.22
2022-08-06T18:10:11.755Z,3.22
2022-08-06T18:12:11.882Z,2.72
2022-08-06T18:14:38.858Z,2.67
2022-08-06T18:17:06.853Z,3.00
2022-08-06T18:19:36.601Z,3.40
2022-08-06T18:22:20.979Z,2.90
2022-08-06T18:24:50.549Z,2.80
2022-08-06T18:27:53.574Z,2.83
2022-08-06T18:32:33.825Z,3.35
2022-08-06T18:35:04.301Z,3.42
2022-08-06T18:38:00.347Z,3.15
2022-08-06T18:40:38.956Z,3.20
2022-08-06T18:43:06.343Z,3.60
2022-08-06T18:45:37.015Z,3.45
2022-08-06T18:48:06.273Z,3.80
2022-08-06T18:50:34.591Z,3.20
2022-08-06T18:53:02.963Z,3.28
2022-08-06T18:55:53.900Z,3.47
2022-08-06T18:58:18.433Z,3.40
2022-08-06T19:00:52.622Z,3.60
2022-08-06T19:03:19.689Z,3.40
2022-08-06T19:05:51.321Z,3.67
2022-08-06T19:08:29.332Z,3.42
2022-08-06T19:11:00.900Z,3.78
2022-08-06T19:13:55.191Z,3.75
2022-08-06T19:16:19.505Z,2.92
2022-08-06T19:18:50.989Z,3.95
2022-08-06T19:21:18.121Z,3.70
2022-08-06T19:24:02.448Z,4.15
2022-08-06T19:26:31.830Z,4.25
2022-08-06T19:28:59.779Z,3.95
2022-08-06T19:31:41.915Z,3.53
2022-08-06T19:34:14.543Z,3.75
2022-08-06T19:36:43.987Z,3.75
2022-08-06T19:39:52.991Z,4.55
2022-08-06T19:42:01.237Z,4.40
2022-08-06T19:44:33.030Z,4.40
2022-08-06T19:47:06.007Z,4.25
2022-08-06T19:49:42.394Z,4.07
2022-08-06T19:52:09.988Z,4.07
2022-08-06T19:54:38.380Z,4.18
2022-08-06T19:57:13.400Z,3.88
2022-08-06T20:00:54.140Z,4.13
2022-08-06T20:02:29.462Z,3.85
2022-08-06T20:04:57.894Z,3.78
2022-08-06T20:07:27.585Z,3.92
2022-08-06T20:10:01.640Z,4.22
2022-08-06T20:12:34.982Z,3.70
2022-08-06T20:15:06.514Z,4.55
2022-08-06T20:17:49.339Z,3.78
2022-08-06T20:20:29.001Z,4.10
2022-08-06T20:22:59.250Z,4.10
2022-08-06T20:25:26.555Z,4.43
2022-08-06T20:29:07.784Z,4.63
2022-08-06T20:30:49.703Z,4.35
2022-08-06T20:33:24.383Z,3.95
2022-08-06T20:35:57.956Z,4.45
2022-08-06T20:38:40.061Z,4.38
2022-08-06T20:41:57.877Z,3.83
2022-08-06T20:44:05.422Z,4.68
2022-08-06T20:49:47.701Z,4.80
2022-08-06T20:52:17.697Z,4.18
2022-08-06T20:54:51.939Z,4.68
2022-08-06T20:57:26.570Z,4.45
2022-08-06T20:59:54.060Z,4.30
2022-08-06T21:02:25.993Z,4.18
2022-08-06T21:05:13.868Z,4.88
2022-08-06T21:07:50.860Z,5.00
2022-08-06T21:10:27.091Z,4.53
2022-08-06T21:13:02.252Z,4.70
2022-08-06T21:15:54.612Z,4.72
2022-08-06T21:18:20.740Z,4.43
2022-08-06T21:20:51.282Z,4.40
2022-08-06T21:23:21.238Z,4.30
2022-08-06T21:25:53.627Z,4.10
2022-08-06T21:28:25.918Z,4.63
2022-08-06T21:30:53.556Z,4.05
2022-08-06T21:33:20.460Z,4.30
2022-08-06T21:35:50.407Z,4.50
2022-08-06T21:38:24.628Z,5.05
2022-08-06T21:40:54.534Z,4.38
2022-08-06T21:43:29.070Z,3.42
2022-08-06T21:46:08.279Z,3.60
2022-08-06T21:48:36.148Z,3.00
2022-08-06T21:51:02.747Z,3.20
2022-08-06T21:53:48.844Z,3.20
2022-08-06T21:59:10.293Z,3.13
2022-08-06T22:02:08.980Z,3.25
2022-08-06T22:07:10.377Z,3.08
2022-08-06T22:09:41.013Z,3.50
2022-08-06T22:12:39.153Z,3.00
2022-08-06T22:14:58.716Z,3.65
2022-08-06T22:18:00.209Z,3.20
2022-08-06T22:20:21.818Z,3.40
2022-08-06T22:22:52.899Z,3.20
2022-08-06T22:25:22.638Z,3.80
2022-08-06T22:27:54.687Z,3.25
2022-08-06T22:30:42.607Z,3.42
2022-08-06T22:33:11.545Z,4.00
2022-08-06T22:35:57.781Z,3.30
2022-08-06T22:38:27.191Z,4.03
2022-08-06T22:40:54.706Z,3.92
2022-08-06T22:43:29.851Z,3.90
2022-08-06T22:46:09.718Z,4.35
2022-08-06T22:48:37.492Z,4.40
2022-08-06T22:51:15.729Z,3.80
2022-08-06T22:54:30.130Z,3.88
2022-08-06T22:56:36.372Z,4.78
2022-08-06T22:59:18.756Z,4.20
2022-08-06T23:02:03.443Z,4.90
2022-08-06T23:04:37.600Z,4.25
2022-08-06T23:07:09.209Z,4.45
2022-08-06T23:09:39.531Z,4.10
2022-08-06T23:12:07.540Z,4.20
2022-08-06T23:14:34.528Z,3.63
2022-08-06T23:17:06.060Z,4.13
2022-08-06T23:19:36.285Z,3.92
2022-08-06T23:22:22.947Z,4.38
2022-08-06T23:25:03.462Z,4.07
2022-08-06T23:27:46.578Z,4.45
2022-08-06T23:30:19.935Z,4.43
2022-08-06T23:32:49.002Z,4.40
2022-08-06T23:35:35.830Z,4.35
2022-08-06T23:38:30.964Z,4.70
2022-08-06T23:40:51.534Z,4.72
2022-08-06T23:43:19.597Z,5.03
2022-08-06T23:45:48.201Z,4.95
2022-08-06T23:48:16.780Z,4.47
2022-08-06T23:50:53.224Z,4.50
2022-08-06T23:54:06.123Z,4.90
2022-08-06T23:56:13.152Z,4.25
2022-08-06T23:58:48.636Z,4.22
